Time;durP1;ratioP1;P1;durP2;ratioP2;P2;SDS_P1;SDS_P2;PMS_P1;PMS_P2;Temp;Humidity;BMP_temperature;BMP_pressure;BME280_temperature;BME280_humidity;BME280_pressure;Samples;Min_cycle;Max_cycle;Signal;HPM_P1;HPM_P2
2021/05/28 00:01:46;;;;;;;13.13;3.40;;;9.70;99.90;;;;;;5113614;27;20184;-61
2021/05/28 00:04:12;;;;;;;8.60;3.00;;;9.70;99.90;;;;;;5134467;27;20564;-61
2021/05/28 00:06:38;;;;;;;6.93;3.03;;;9.70;99.90;;;;;;5134479;27;20180;-61
2021/05/28 00:09:05;;;;;;;6.75;2.75;;;9.80;99.90;;;;;;5115901;27;20645;-61
2021/05/28 00:11:31;;;;;;;6.13;3.20;;;9.80;99.90;;;;;;5134444;27;20184;-62
2021/05/28 00:13:57;;;;;;;6.05;2.80;;;9.80;99.90;;;;;;5133450;27;20185;-62
2021/05/28 00:16:25;;;;;;;5.75;2.88;;;9.80;99.90;;;;;;5120014;27;20179;-62
2021/05/28 00:18:54;;;;;;;14.85;4.28;;;9.80;99.90;;;;;;5133779;27;20533;-62
2021/05/28 00:21:21;;;;;;;8.85;3.13;;;9.80;99.90;;;;;;5134563;27;20206;-62
2021/05/28 00:23:47;;;;;;;7.80;3.00;;;9.80;99.90;;;;;;5136858;27;20175;-62
2021/05/28 00:26:13;;;;;;;7.43;2.90;;;9.80;99.90;;;;;;5134244;27;20532;-62
2021/05/28 00:28:39;;;;;;;11.43;3.13;;;9.80;99.90;;;;;;5134331;27;20243;-63
2021/05/28 00:31:05;;;;;;;5.95;2.67;;;9.80;99.90;;;;;;5133281;27;20188;-62
2021/05/28 00:33:32;;;;;;;8.10;3.03;;;9.80;99.90;;;;;;5134309;27;20208;-62
2021/05/28 00:35:58;;;;;;;7.65;3.30;;;9.80;99.90;;;;;;5133927;27;20176;-61
2021/05/28 00:38:24;;;;;;;14.65;3.50;;;9.80;99.90;;;;;;5119563;27;20542;-61
2021/05/28 00:40:50;;;;;;;9.27;2.88;;;9.90;99.90;;;;;;5134048;27;20183;-61
2021/05/28 00:43:16;;;;;;;9.07;2.65;;;9.90;99.90;;;;;;5133802;27;20643;-62
2021/05/28 00:45:42;;;;;;;10.50;2.95;;;10.00;99.90;;;;;;5133580;27;20207;-63
2021/05/28 00:48:08;;;;;;;10.57;3.00;;;9.90;99.90;;;;;;5112388;27;20624;-62
2021/05/28 00:50:34;;;;;;;4.85;2.80;;;10.00;99.90;;;;;;5133936;27;20558;-62
2021/05/28 00:53:00;;;;;;;9.27;3.30;;;10.00;99.90;;;;;;5136098;27;20192;-62
2021/05/28 00:55:26;;;;;;;8.15;2.80;;;9.90;99.90;;;;;;5133601;27;20179;-62
2021/05/28 00:57:54;;;;;;;10.43;2.75;;;9.90;99.90;;;;;;5133469;27;20257;-62
2021/05/28 01:00:21;;;;;;;7.00;2.75;;;9.90;99.90;;;;;;5115560;27;20184;-62
2021/05/28 01:02:47;;;;;;;5.47;2.42;;;9.90;99.90;;;;;;5133340;27;20164;-62
2021/05/28 01:05:13;;;;;;;7.22;2.50;;;10.00;99.90;;;;;;5133694;27;20199;-62
2021/05/28 01:07:39;;;;;;;4.15;2.72;;;10.00;99.90;;;;;;5134851;27;20179;-61
2021/05/28 01:10:06;;;;;;;8.48;3.00;;;10.00;99.90;;;;;;5133379;27;20187;-61
2021/05/28 01:12:32;;;;;;;5.90;2.60;;;10.00;99.90;;;;;;5139587;27;20175;-61
2021/05/28 01:14:58;;;;;;;5.72;2.45;;;10.00;99.90;;;;;;5132696;27;20574;-61
2021/05/28 01:17:24;;;;;;;7.65;3.08;;;10.00;99.90;;;;;;5133594;27;20168;-61
2021/05/28 01:19:50;;;;;;;6.68;2.53;;;10.00;99.90;;;;;;5132259;27;20194;-60
2021/05/28 01:22:19;;;;;;;7.30;2.50;;;10.00;99.90;;;;;;5133221;27;20178;-62
2021/05/28 01:24:45;;;;;;;5.28;2.45;;;10.00;99.90;;;;;;5132605;27;20573;-62
2021/05/28 01:27:12;;;;;;;9.70;2.40;;;10.00;99.90;;;;;;5114863;27;20168;-62
2021/05/28 01:29:38;;;;;;;5.35;2.42;;;10.00;99.90;;;;;;5111962;27;20175;-61
2021/05/28 01:32:04;;;;;;;4.95;2.92;;;10.00;99.90;;;;;;5131532;27;20199;-62
2021/05/28 01:34:30;;;;;;;5.47;2.72;;;9.90;99.90;;;;;;5134294;27;20234;-62
2021/05/28 01:36:56;;;;;;;8.07;2.88;;;9.90;99.90;;;;;;5132465;27;20171;-62
2021/05/28 01:39:22;;;;;;;6.13;2.58;;;9.90;99.90;;;;;;5132279;27;20179;-62
2021/05/28 01:41:48;;;;;;;11.90;3.05;;;9.90;99.90;;;;;;5137042;27;20187;-62
2021/05/28 01:44:17;;;;;;;5.28;2.63;;;9.90;99.90;;;;;;5132230;27;20176;-62
2021/05/28 01:46:43;;;;;;;6.88;2.70;;;9.90;99.90;;;;;;5132590;27;20175;-62
2021/05/28 01:49:09;;;;;;;13.00;2.83;;;9.90;99.90;;;;;;5132775;27;20183;-61
2021/05/28 01:51:35;;;;;;;10.95;2.70;;;9.90;99.90;;;;;;5132772;27;20543;-61
2021/05/28 01:54:01;;;;;;;10.05;3.50;;;9.80;99.90;;;;;;5132412;27;20200;-61
2021/05/28 01:56:27;;;;;;;6.75;2.88;;;9.80;99.90;;;;;;5132586;27;20556;-61
2021/05/28 01:58:53;;;;;;;5.72;2.75;;;9.80;99.90;;;;;;5132250;27;20200;-61
2021/05/28 02:01:20;;;;;;;4.47;2.47;;;9.80;99.90;;;;;;5132558;27;20180;-61
2021/05/28 02:03:46;;;;;;;9.90;2.97;;;9.80;99.90;;;;;;5109608;27;20184;-61
2021/05/28 02:06:12;;;;;;;8.90;2.72;;;9.80;99.90;;;;;;5132572;27;20215;-62
2021/05/28 02:08:38;;;;;;;4.20;2.60;;;9.80;99.90;;;;;;5132678;27;20537;-61
2021/05/28 02:11:04;;;;;;;6.55;3.15;;;9.80;99.90;;;;;;5132022;27;20167;-62
2021/05/28 02:13:30;;;;;;;5.75;2.78;;;9.80;99.90;;;;;;5132159;27;20172;-62
2021/05/28 02:15:56;;;;;;;5.75;2.67;;;9.80;99.90;;;;;;5132294;27;20541;-62
2021/05/28 02:18:23;;;;;;;15.43;3.40;;;9.80;99.90;;;;;;5131717;27;20183;-62
2021/05/28 02:20:49;;;;;;;9.88;3.03;;;9.70;99.90;;;;;;5112283;27;20180;-62
2021/05/28 02:23:15;;;;;;;11.65;3.10;;;9.70;99.90;;;;;;5133239;27;20180;-62
2021/05/28 02:25:41;;;;;;;6.68;3.03;;;9.70;99.90;;;;;;5131633;27;20211;-62
2021/05/28 02:28:08;;;;;;;8.13;3.08;;;9.60;99.90;;;;;;5132423;27;20180;-62
2021/05/28 02:30:34;;;;;;;4.55;2.85;;;9.70;99.90;;;;;;5132408;27;20175;-61
2021/05/28 02:33:00;;;;;;;6.38;2.80;;;9.60;99.90;;;;;;5131553;27;20650;-61
2021/05/28 02:35:26;;;;;;;5.88;2.83;;;9.60;99.90;;;;;;5114048;27;20175;-61
2021/05/28 02:37:52;;;;;;;5.82;3.03;;;9.60;99.90;;;;;;5132006;27;20187;-61
2021/05/28 02:40:18;;;;;;;7.78;3.00;;;9.60;99.90;;;;;;5133647;27;20558;-61
2021/05/28 02:42:44;;;;;;;7.10;2.83;;;9.50;99.90;;;;;;5136579;27;20168;-61
2021/05/28 02:45:11;;;;;;;25.15;5.25;;;9.50;99.90;;;;;;5135860;27;20203;-61
2021/05/28 02:47:37;;;;;;;7.97;3.20;;;9.50;99.90;;;;;;5136114;27;20191;-62
2021/05/28 02:50:04;;;;;;;6.28;3.20;;;9.50;99.90;;;;;;5098389;27;20192;-62
2021/05/28 02:52:30;;;;;;;7.03;3.08;;;9.50;99.90;;;;;;5136325;27;20178;-62
2021/05/28 02:54:56;;;;;;;6.43;3.72;;;9.50;99.90;;;;;;5139109;27;20179;-62
2021/05/28 02:57:22;;;;;;;15.82;3.60;;;9.50;99.90;;;;;;5137355;27;20202;-61
2021/05/28 02:59:48;;;;;;;9.07;3.33;;;9.50;99.90;;;;;;5136810;27;20527;-62
2021/05/28 03:02:14;;;;;;;14.57;3.20;;;9.50;99.90;;;;;;5141102;27;20172;-61
2021/05/28 03:04:40;;;;;;;7.10;3.05;;;9.50;99.90;;;;;;5138572;27;20211;-61
2021/05/28 03:07:06;;;;;;;7.53;3.40;;;9.50;99.90;;;;;;5137723;27;20190;-61
2021/05/28 03:09:32;;;;;;;6.75;3.40;;;9.60;99.90;;;;;;5137078;27;20513;-62
2021/05/28 03:11:59;;;;;;;8.98;3.38;;;9.60;99.90;;;;;;5136354;27;20183;-62
2021/05/28 03:14:25;;;;;;;8.32;3.63;;;9.60;99.90;;;;;;5136482;27;20179;-61
2021/05/28 03:16:51;;;;;;;5.45;3.42;;;9.70;99.90;;;;;;5118236;27;20183;-61
2021/05/28 03:19:23;;;;;;;10.05;3.25;;;9.80;99.90;;;;;;5136689;27;20172;-62
2021/05/28 03:24:34;;;;;;;4.60;2.60;;;9.90;99.90;;;;;;5143355;27;20624;-63
2021/05/28 03:27:00;;;;;;;9.35;3.30;;;10.00;99.90;;;;;;5135320;27;20211;-61
2021/05/28 03:29:26;;;;;;;6.88;3.00;;;10.00;99.90;;;;;;5133323;27;20289;-61
2021/05/28 03:31:52;;;;;;;6.50;2.88;;;10.10;99.90;;;;;;5135033;27;21703;-61
2021/05/28 03:34:18;;;;;;;8.93;3.17;;;10.10;99.90;;;;;;5135696;27;20278;-61
2021/05/28 03:36:44;;;;;;;5.43;2.97;;;10.20;99.90;;;;;;5115763;28;20176;-62
2021/05/28 03:39:10;;;;;;;6.05;3.17;;;10.30;99.90;;;;;;5104168;27;20643;-62
2021/05/28 03:41:37;;;;;;;5.03;2.90;;;10.30;99.90;;;;;;5133763;27;20176;-62
2021/05/28 03:44:03;;;;;;;8.13;3.00;;;10.30;99.90;;;;;;5136705;27;20186;-62
2021/05/28 03:46:29;;;;;;;5.05;2.78;;;10.40;99.90;;;;;;5133380;27;20564;-62
2021/05/28 03:48:55;;;;;;;5.57;3.08;;;10.50;99.90;;;;;;5133775;27;20172;-60
2021/05/28 03:51:22;;;;;;;7.32;3.45;;;10.50;99.90;;;;;;5133195;27;20624;-62
2021/05/28 03:53:49;;;;;;;9.40;3.20;;;10.60;99.90;;;;;;5133912;27;20172;-61
2021/05/28 03:56:15;;;;;;;10.55;3.10;;;10.60;99.90;;;;;;5134331;27;20184;-61
2021/05/28 03:58:42;;;;;;;7.15;2.70;;;10.70;99.90;;;;;;5131777;28;20196;-62
2021/05/28 04:01:09;;;;;;;5.90;2.97;;;10.70;99.90;;;;;;5135618;27;20172;-61
2021/05/28 04:03:35;;;;;;;6.25;2.83;;;10.70;99.90;;;;;;5117042;27;20181;-61
2021/05/28 04:06:01;;;;;;;4.75;2.70;;;10.80;99.90;;;;;;5134864;27;20204;-61
2021/05/28 04:08:27;;;;;;;11.30;3.17;;;10.80;99.90;;;;;;5143549;27;20175;-61
2021/05/28 04:10:53;;;;;;;4.20;2.40;;;10.90;99.90;;;;;;5139838;27;20183;-62
2021/05/28 04:13:20;;;;;;;4.22;2.72;;;10.90;99.90;;;;;;5119441;27;20180;-63
2021/05/28 04:15:46;;;;;;;5.07;2.40;;;10.90;99.90;;;;;;5124036;27;20172;-61
2021/05/28 04:18:12;;;;;;;14.38;3.05;;;11.00;99.90;;;;;;5136101;27;20621;-61
2021/05/28 04:20:39;;;;;;;9.15;2.10;;;11.00;99.90;;;;;;5139609;27;20171;-61
2021/05/28 04:23:05;;;;;;;5.50;2.30;;;11.10;99.90;;;;;;5114215;27;20163;-69
2021/05/28 04:25:31;;;;;;;5.22;2.53;;;11.20;99.90;;;;;;5138068;27;20207;-62
2021/05/28 04:27:57;;;;;;;3.58;2.30;;;11.30;99.90;;;;;;5138490;27;20172;-61
2021/05/28 04:30:24;;;;;;;7.10;2.47;;;11.40;99.90;;;;;;5137005;27;20182;-66
2021/05/28 04:32:53;;;;;;;7.00;2.63;;;11.40;99.90;;;;;;5133578;27;20180;-61
2021/05/28 04:35:19;;;;;;;4.97;2.03;;;11.50;99.90;;;;;;5100701;27;1108423;-61
2021/05/28 04:37:45;;;;;;;6.22;2.70;;;11.50;99.90;;;;;;5142220;27;20195;-61
2021/05/28 04:40:11;;;;;;;5.45;2.20;;;11.60;99.90;;;;;;5118730;27;20163;-61
2021/05/28 04:42:37;;;;;;;5.90;2.55;;;11.60;99.90;;;;;;5140952;27;20199;-61
2021/05/28 04:45:04;;;;;;;6.07;2.20;;;11.60;99.90;;;;;;5142462;27;20168;-61
2021/05/28 04:47:32;;;;;;;7.85;2.40;;;11.50;99.90;;;;;;5142833;27;20660;-60
2021/05/28 04:49:59;;;;;;;10.43;2.40;;;11.50;99.90;;;;;;5142682;27;20186;-61
2021/05/28 04:52:25;;;;;;;6.25;2.15;;;11.50;99.90;;;;;;5139725;27;20531;-61
2021/05/28 04:54:51;;;;;;;13.52;2.17;;;11.50;99.90;;;;;;5142474;27;20172;-60
2021/05/28 04:57:17;;;;;;;4.18;1.98;;;11.50;99.90;;;;;;5141460;27;20538;-60
2021/05/28 04:59:43;;;;;;;4.00;2.15;;;11.60;99.90;;;;;;5139494;27;20187;-61
2021/05/28 05:02:09;;;;;;;2.85;2.00;;;11.50;99.90;;;;;;5142144;27;20171;-60
2021/05/28 05:04:35;;;;;;;3.13;1.73;;;11.60;99.90;;;;;;5123749;27;20194;-61
2021/05/28 05:07:01;;;;;;;3.53;1.90;;;11.60;99.90;;;;;;5138813;27;20207;-62
2021/05/28 05:09:27;;;;;;;9.27;2.10;;;11.60;99.90;;;;;;5124401;27;20180;-61
2021/05/28 05:11:54;;;;;;;3.13;1.95;;;11.60;99.90;;;;;;5136937;27;20544;-62
2021/05/28 05:14:20;;;;;;;2.97;1.92;;;11.60;99.90;;;;;;5141059;27;20180;-61
2021/05/28 05:16:46;;;;;;;6.97;1.95;;;11.70;99.90;;;;;;5141710;27;20175;-61
2021/05/28 05:19:12;;;;;;;9.55;2.30;;;11.80;99.90;;;;;;5140764;27;20168;-61
2021/05/28 05:21:39;;;;;;;5.43;2.38;;;11.90;99.90;;;;;;5140261;27;20655;-61
2021/05/28 05:24:09;;;;;;;8.43;2.00;;;11.90;99.90;;;;;;5137764;27;20562;-61
2021/05/28 05:26:35;;;;;;;6.47;1.80;;;12.00;99.90;;;;;;5142496;27;20565;-61
2021/05/28 05:29:03;;;;;;;6.00;2.30;;;12.10;99.90;;;;;;5142482;27;20188;-61
2021/05/28 05:31:29;;;;;;;6.13;2.13;;;12.10;99.90;;;;;;5138643;27;20172;-61
2021/05/28 05:33:55;;;;;;;7.72;2.13;;;12.10;99.90;;;;;;5138606;27;20220;-62
2021/05/28 05:36:22;;;;;;;16.85;2.10;;;12.20;99.90;;;;;;5117025;27;20164;-62
2021/05/28 05:38:48;;;;;;;2.63;1.63;;;12.20;99.90;;;;;;5138757;27;20627;-61
2021/05/28 05:41:14;;;;;;;6.60;1.88;;;12.20;99.90;;;;;;5137521;27;20174;-61
2021/05/28 05:43:40;;;;;;;5.03;2.05;;;12.30;99.90;;;;;;5136626;27;20666;-60
2021/05/28 05:46:06;;;;;;;9.63;1.80;;;12.40;99.90;;;;;;5130295;27;20216;-61
2021/05/28 05:48:32;;;;;;;5.40;2.22;;;12.30;99.90;;;;;;5130139;27;20215;-62
2021/05/28 05:50:58;;;;;;;2.53;1.90;;;12.20;99.90;;;;;;5111230;27;20257;-61
2021/05/28 05:53:24;;;;;;;3.50;1.98;;;12.20;99.90;;;;;;5116114;27;20566;-62
2021/05/28 05:55:50;;;;;;;4.70;1.90;;;12.20;99.90;;;;;;5116656;27;20182;-61
2021/05/28 05:58:16;;;;;;;5.38;2.05;;;12.40;99.90;;;;;;5135616;27;20195;-61
2021/05/28 06:00:42;;;;;;;3.38;1.80;;;12.40;99.90;;;;;;5138341;27;20171;-61
2021/05/28 06:03:09;;;;;;;2.72;1.77;;;12.50;99.90;;;;;;5135230;27;20180;-62
2021/05/28 06:05:35;;;;;;;4.82;1.80;;;12.60;99.90;;;;;;5114257;27;20199;-62
2021/05/28 06:08:02;;;;;;;3.47;1.77;;;12.70;99.90;;;;;;5117105;27;20999;-61
2021/05/28 06:10:28;;;;;;;3.78;1.60;;;12.80;99.90;;;;;;5135522;27;20183;-61
2021/05/28 06:13:01;;;;;;;18.70;2.25;;;13.00;99.90;;;;;;5137742;27;20619;-62
2021/05/28 06:15:27;;;;;;;3.80;1.75;;;13.10;99.90;;;;;;5114160;27;20203;-61
2021/05/28 06:17:53;;;;;;;2.45;1.52;;;13.20;99.90;;;;;;5137024;27;20175;-61
2021/05/28 06:20:19;;;;;;;4.78;1.70;;;13.20;99.90;;;;;;5135371;27;20163;-62
2021/05/28 06:22:48;;;;;;;4.15;1.95;;;13.20;99.90;;;;;;5139910;27;20171;-61
2021/05/28 06:25:14;;;;;;;5.07;1.63;;;13.30;99.90;;;;;;5141105;27;20533;-61
2021/05/28 06:27:40;;;;;;;4.93;1.63;;;13.40;99.90;;;;;;5139993;27;20218;-60
2021/05/28 06:30:08;;;;;;;5.75;1.90;;;13.30;99.90;;;;;;5129193;27;20659;-61
2021/05/28 06:32:34;;;;;;;43.88;3.25;;;13.30;99.90;;;;;;5138915;27;20187;-61
2021/05/28 06:35:00;;;;;;;6.82;2.33;;;13.30;99.90;;;;;;5139417;27;20206;-62
2021/05/28 06:37:26;;;;;;;2.45;1.42;;;13.40;99.90;;;;;;5139462;27;20533;-61
2021/05/28 06:39:52;;;;;;;2.05;1.20;;;13.40;99.90;;;;;;5139658;27;20195;-61
2021/05/28 06:42:19;;;;;;;5.05;1.80;;;13.40;99.90;;;;;;5139077;27;20644;-62
2021/05/28 06:44:45;;;;;;;4.40;1.38;;;13.60;99.90;;;;;;5141552;27;20182;-61
2021/05/28 06:47:11;;;;;;;7.68;1.55;;;13.60;99.90;;;;;;5140408;27;20565;-61
2021/05/28 06:49:37;;;;;;;3.78;1.70;;;13.60;99.90;;;;;;5118373;27;20179;-61
2021/05/28 06:52:03;;;;;;;2.17;1.10;;;13.50;99.90;;;;;;5136981;27;20534;-61
2021/05/28 06:54:31;;;;;;;2.72;1.17;;;13.40;99.90;;;;;;5135528;27;20192;-62
2021/05/28 06:56:57;;;;;;;6.20;1.30;;;13.30;99.90;;;;;;5135609;27;20191;-62
2021/05/28 06:59:23;;;;;;;1.33;1.20;;;13.30;99.90;;;;;;5137039;27;20237;-61
2021/05/28 07:01:49;;;;;;;2.28;1.30;;;13.30;99.90;;;;;;5143283;27;20179;-62
2021/05/28 07:04:15;;;;;;;3.33;1.05;;;13.40;99.90;;;;;;5138967;27;20178;-61
2021/05/28 07:06:41;;;;;;;2.13;1.17;;;13.40;99.70;;;;;;5117869;27;20656;-61
2021/05/28 07:09:08;;;;;;;4.00;1.13;;;13.50;99.80;;;;;;5137315;27;20183;-61
2021/05/28 07:11:34;;;;;;;2.17;1.20;;;13.60;99.70;;;;;;5140271;27;20194;-63
2021/05/28 07:14:00;;;;;;;2.45;1.13;;;13.70;98.80;;;;;;5140347;27;20183;-61
2021/05/28 07:16:28;;;;;;;3.90;1.27;;;13.80;98.60;;;;;;5138421;27;20177;-61
2021/05/28 07:18:54;;;;;;;1.98;0.95;;;13.90;98.50;;;;;;5134220;27;20195;-61
2021/05/28 07:21:23;;;;;;;9.05;1.27;;;13.80;98.00;;;;;;5134925;27;20543;-62
2021/05/28 07:23:49;;;;;;;1.98;1.00;;;13.80;97.00;;;;;;5139393;27;20184;-61
2021/05/28 07:26:15;;;;;;;1.75;1.23;;;13.90;95.90;;;;;;5138634;27;20207;-62
2021/05/28 07:28:41;;;;;;;1.52;1.20;;;14.10;96.80;;;;;;5123222;27;20180;-62
2021/05/28 07:31:07;;;;;;;3.72;1.30;;;14.30;97.70;;;;;;5144068;27;20195;-62
2021/05/28 07:33:33;;;;;;;2.88;1.25;;;14.40;97.70;;;;;;5143848;27;20211;-62
2021/05/28 07:35:59;;;;;;;2.55;1.00;;;14.60;98.80;;;;;;5140719;27;20186;-62
2021/05/28 07:38:26;;;;;;;1.55;1.00;;;14.80;98.70;;;;;;5141909;27;20632;-61
2021/05/28 07:40:52;;;;;;;2.92;1.40;;;15.10;98.70;;;;;;5140025;27;20183;-61
2021/05/28 07:43:18;;;;;;;2.30;1.30;;;15.30;97.80;;;;;;5143673;27;20176;-62
2021/05/28 07:45:49;;;;;;;3.42;1.20;;;15.20;97.10;;;;;;5143113;27;20188;-61
2021/05/28 07:48:15;;;;;;;2.40;1.30;;;15.10;97.40;;;;;;5144408;27;20547;-62
2021/05/28 07:50:48;;;;;;;1.60;1.10;;;15.00;97.10;;;;;;5142265;27;20280;-61
2021/05/28 07:53:22;;;;;;;1.80;1.00;;;15.10;97.60;;;;;;5138988;27;20192;-62
2021/05/28 07:55:49;;;;;;;3.60;1.30;;;15.20;97.40;;;;;;5142858;27;20176;-61
2021/05/28 07:58:16;;;;;;;1.55;1.20;;;15.20;95.80;;;;;;5138455;27;20202;-62
2021/05/28 08:00:42;;;;;;;2.05;1.23;;;15.30;97.50;;;;;;5141353;27;20179;-61
2021/05/28 08:03:08;;;;;;;2.78;1.27;;;15.50;96.80;;;;;;5142079;27;20199;-61
2021/05/28 08:05:34;;;;;;;4.93;1.20;;;15.50;95.70;;;;;;5119347;27;20628;-61
2021/05/28 08:08:00;;;;;;;4.93;1.13;;;15.60;97.80;;;;;;5142846;27;20211;-62
2021/05/28 08:10:26;;;;;;;1.30;1.10;;;15.70;96.70;;;;;;5143497;27;20179;-62
2021/05/28 08:12:53;;;;;;;4.13;1.35;;;16.10;96.50;;;;;;5144451;27;20183;-61
2021/05/28 08:15:19;;;;;;;1.20;1.05;;;16.40;96.30;;;;;;5142885;27;20170;-62
2021/05/28 08:17:46;;;;;;;3.03;1.15;;;16.50;95.70;;;;;;5143172;27;20184;-63
2021/05/28 08:20:13;;;;;;;1.77;1.15;;;16.60;94.10;;;;;;5143653;27;20171;-62
2021/05/28 08:22:39;;;;;;;1.67;1.00;;;16.40;93.50;;;;;;5119336;27;20183;-62
2021/05/28 08:25:06;;;;;;;1.42;1.17;;;16.50;95.70;;;;;;5142758;27;20170;-62
2021/05/28 08:27:32;;;;;;;1.83;1.23;;;16.70;95.40;;;;;;5116993;27;20210;-62
2021/05/28 08:29:58;;;;;;;8.65;1.50;;;16.90;92.00;;;;;;5140552;27;20195;-62
2021/05/28 08:32:25;;;;;;;2.58;1.20;;;17.30;92.30;;;;;;5133693;27;20183;-61
2021/05/28 08:34:51;;;;;;;2.58;1.30;;;17.50;91.10;;;;;;5137396;27;20199;-61
2021/05/28 08:37:17;;;;;;;1.30;1.20;;;17.70;88.30;;;;;;5138963;27;20515;-61
2021/05/28 08:39:43;;;;;;;3.90;1.13;;;18.10;90.00;;;;;;5136247;27;20184;-62
2021/05/28 08:42:10;;;;;;;2.78;1.40;;;18.50;86.20;;;;;;5135755;27;20688;-62
2021/05/28 08:44:36;;;;;;;2.03;1.00;;;18.70;86.30;;;;;;5122112;27;20167;-62
2021/05/28 08:47:03;;;;;;;2.22;1.10;;;19.00;82.00;;;;;;5153731;27;20207;-62
2021/05/28 08:49:29;;;;;;;2.30;0.90;;;19.50;82.40;;;;;;5143886;27;20170;-63
2021/05/28 08:51:57;;;;;;;1.17;1.05;;;19.80;77.70;;;;;;5150605;27;20171;-62
2021/05/28 08:54:24;;;;;;;2.88;1.20;;;20.20;82.10;;;;;;5137048;27;20646;-63
2021/05/28 08:56:51;;;;;;;1.27;1.00;;;20.80;76.70;;;;;;5146279;27;20168;-63
2021/05/28 08:59:17;;;;;;;3.80;1.40;;;21.00;73.00;;;;;;5125700;27;20175;-63
2021/05/28 09:01:43;;;;;;;1.30;1.02;;;20.60;68.20;;;;;;5117904;27;20183;-63
2021/05/28 09:04:11;;;;;;;2.10;1.17;;;20.70;74.10;;;;;;5131416;27;20168;-63
2021/05/28 09:06:45;;;;;;;0.80;0.80;;;21.70;82.60;;;;;;5115621;27;20200;-63
2021/05/28 09:09:14;;;;;;;2.00;1.10;;;21.60;64.20;;;;;;5127475;27;20175;-62
2021/05/28 09:12:05;;;;;;;5.28;1.15;;;21.60;63.50;;;;;;5122664;27;20184;-62
2021/05/28 09:14:43;;;;;;;2.15;1.10;;;21.80;64.30;;;;;;5113991;27;20613;-63
2021/05/28 09:17:10;;;;;;;4.53;1.10;;;22.40;65.80;;;;;;5123950;27;20165;-63
2021/05/28 09:19:37;;;;;;;2.15;1.20;;;20.90;60.10;;;;;;5116352;27;20187;-63
2021/05/28 09:22:05;;;;;;;2.97;1.10;;;19.40;67.70;;;;;;5150434;27;20183;-63
2021/05/28 09:24:39;;;;;;;2.75;1.30;;;19.60;72.00;;;;;;5116183;27;20164;-63
2021/05/28 09:27:17;;;;;;;2.05;1.15;;;19.90;67.50;;;;;;5127382;27;20210;-63
2021/05/28 09:30:14;;;;;;;3.80;1.40;;;19.90;66.40;;;;;;5143214;27;20175;-62
2021/05/28 09:32:46;;;;;;;2.75;1.02;;;19.70;66.70;;;;;;5117273;27;20176;-62
2021/05/28 09:35:13;;;;;;;3.72;1.08;;;20.50;64.20;;;;;;5133724;27;20245;-62
2021/05/28 09:37:51;;;;;;;3.97;1.30;;;20.70;64.00;;;;;;5145537;27;20198;-63
2021/05/28 09:40:28;;;;;;;84.10;5.30;;;20.50;62.60;;;;;;5119737;27;20177;-63
2021/05/28 09:43:04;;;;;;;2.47;1.45;;;20.00;62.70;;;;;;5144417;27;20893;-62
2021/05/28 09:45:35;;;;;;;3.40;1.20;;;19.90;65.30;;;;;;5141111;27;20230;-62
2021/05/28 09:48:03;;;;;;;7.20;1.83;;;19.80;66.50;;;;;;5129845;27;20211;-62
2021/05/28 09:50:33;;;;;;;2.97;1.50;;;19.20;64.60;;;;;;5133336;27;20171;-62
2021/05/28 09:53:03;;;;;;;1.70;1.60;;;19.90;64.80;;;;;;5142557;27;20183;-63
2021/05/28 09:55:33;;;;;;;1.55;1.30;;;19.50;65.20;;;;;;5117140;27;20164;-61
2021/05/28 09:57:59;;;;;;;5.00;1.45;;;18.50;68.90;;;;;;5141272;27;20203;-62
2021/05/28 10:00:26;;;;;;;3.05;1.30;;;18.70;72.70;;;;;;5138162;27;20206;-62
2021/05/28 10:03:23;;;;;;;4.82;1.60;;;18.80;70.10;;;;;;5142735;27;20171;-62
2021/05/28 10:05:51;;;;;;;4.97;1.42;;;18.80;74.30;;;;;;5136653;27;20538;-63
2021/05/28 10:08:19;;;;;;;2.60;1.48;;;18.90;71.10;;;;;;5133644;27;20211;-62
2021/05/28 10:10:49;;;;;;;4.63;1.45;;;18.90;74.30;;;;;;5114627;27;20191;-63
2021/05/28 10:13:17;;;;;;;3.15;1.40;;;19.30;75.50;;;;;;5134998;27;20562;-61
2021/05/28 10:15:50;;;;;;;3.67;1.60;;;19.20;70.40;;;;;;5132766;27;20179;-61
2021/05/28 10:18:17;;;;;;;3.47;1.67;;;19.40;71.70;;;;;;5137896;27;20171;-63
2021/05/28 10:20:51;;;;;;;1.45;1.35;;;18.90;70.50;;;;;;5137806;27;20171;-61
2021/05/28 10:23:17;;;;;;;2.17;1.50;;;19.20;73.50;;;;;;5102809;27;20172;-62
2021/05/28 10:25:44;;;;;;;1.73;1.45;;;19.40;69.00;;;;;;5138164;27;20168;-63
2021/05/28 10:28:21;;;;;;;2.40;1.50;;;20.10;68.60;;;;;;5138780;27;20211;-62
2021/05/28 10:30:48;;;;;;;1.80;1.30;;;20.10;65.00;;;;;;5113948;28;20187;-62
2021/05/28 10:33:26;;;;;;;4.15;1.58;;;20.10;66.00;;;;;;5130203;28;20176;-62
2021/05/28 10:36:12;;;;;;;6.50;1.60;;;20.30;66.60;;;;;;5111788;28;20497;-63
2021/05/28 10:38:42;;;;;;;2.78;1.67;;;19.20;63.60;;;;;;5112276;28;20187;-62
2021/05/28 10:41:11;;;;;;;4.85;1.48;;;19.10;67.50;;;;;;5123707;27;20531;-62
2021/05/28 10:43:57;;;;;;;5.60;1.92;;;19.00;65.80;;;;;;5126705;27;20171;-61
2021/05/28 10:46:23;;;;;;;2.15;1.50;;;18.80;65.00;;;;;;5130116;28;20163;-61
2021/05/28 10:49:11;;;;;;;4.90;1.38;;;18.80;65.90;;;;;;5132412;28;20190;-62
2021/05/28 10:51:37;;;;;;;2.10;1.30;;;18.80;64.80;;;;;;5131836;28;20167;-62
2021/05/28 10:54:03;;;;;;;4.30;1.25;;;19.50;66.00;;;;;;5132762;28;20632;-62
2021/05/28 10:56:35;;;;;;;1.95;1.20;;;19.10;60.00;;;;;;5132265;28;20176;-63
2021/05/28 10:59:16;;;;;;;2.45;1.42;;;18.70;65.80;;;;;;5132396;28;20180;-62
2021/05/28 11:01:58;;;;;;;4.65;1.50;;;18.50;64.80;;;;;;5133765;27;20160;-63
2021/05/28 11:04:44;;;;;;;2.08;1.33;;;18.70;68.00;;;;;;5137295;27;20161;-63
2021/05/28 11:07:10;;;;;;;3.80;1.70;;;18.40;66.50;;;;;;5118878;27;20223;-63
2021/05/28 11:09:40;;;;;;;2.17;1.40;;;18.30;66.90;;;;;;5116028;27;20183;-63
2021/05/28 11:12:07;;;;;;;2.28;1.63;;;18.00;68.70;;;;;;5133844;27;20861;-62
2021/05/28 11:14:35;;;;;;;3.60;1.23;;;17.80;67.60;;;;;;5134508;27;20186;-62
2021/05/28 11:17:01;;;;;;;3.15;1.20;;;17.90;66.60;;;;;;5136913;27;20176;-62
2021/05/28 11:19:39;;;;;;;3.25;1.10;;;17.70;69.20;;;;;;5136308;27;20179;-61
2021/05/28 11:22:38;;;;;;;3.33;1.10;;;18.00;72.30;;;;;;5136528;27;20492;-62
2021/05/28 11:25:06;;;;;;;3.92;1.20;;;18.30;68.00;;;;;;5113000;27;20179;-61
2021/05/28 11:27:32;;;;;;;1.45;1.00;;;18.40;69.60;;;;;;5136371;27;20210;-62
2021/05/28 11:30:02;;;;;;;2.67;0.77;;;18.20;65.70;;;;;;5136358;27;20179;-62
2021/05/28 11:32:37;;;;;;;6.35;1.00;;;18.20;64.90;;;;;;5136097;27;20164;-62
2021/05/28 11:35:16;;;;;;;2.83;0.85;;;18.10;64.20;;;;;;5116164;27;20218;-62
2021/05/28 11:37:49;;;;;;;2.33;1.20;;;18.50;69.80;;;;;;5136223;27;20620;-62
2021/05/28 11:40:35;;;;;;;7.13;0.90;;;18.90;68.80;;;;;;5135754;27;20179;-63
2021/05/28 11:43:19;;;;;;;2.78;0.70;;;18.30;63.10;;;;;;5116090;27;20191;-61
2021/05/28 11:45:51;;;;;;;0.65;0.55;;;17.80;63.20;;;;;;5128813;27;20175;-62
2021/05/28 11:48:24;;;;;;;7.18;0.80;;;17.40;59.50;;;;;;5116557;27;20680;-62
2021/05/28 11:50:57;;;;;;;3.72;0.70;;;17.30;62.90;;;;;;5136838;27;20183;-62
2021/05/28 11:53:28;;;;;;;1.40;1.10;;;16.90;61.20;;;;;;5135458;27;20168;-62
2021/05/28 11:55:55;;;;;;;4.05;0.90;;;16.80;64.60;;;;;;5134815;27;20172;-63
2021/05/28 11:58:23;;;;;;;1.75;1.05;;;16.90;68.50;;;;;;5134265;27;20199;-62
2021/05/28 12:00:53;;;;;;;4.10;1.00;;;16.90;67.50;;;;;;5134556;27;20160;-62
2021/05/28 12:03:19;;;;;;;2.08;0.88;;;16.70;65.60;;;;;;5114576;27;20506;-62
2021/05/28 12:05:46;;;;;;;4.45;1.13;;;16.90;67.50;;;;;;5096533;27;20175;-62
2021/05/28 12:08:21;;;;;;;5.47;1.08;;;16.90;66.10;;;;;;5132970;27;20227;-63
2021/05/28 12:10:55;;;;;;;2.08;1.33;;;16.60;67.00;;;;;;5127512;27;20152;-62
2021/05/28 12:13:33;;;;;;;4.93;1.05;;;16.50;69.80;;;;;;5116596;27;20174;-63
2021/05/28 12:16:04;;;;;;;2.08;1.30;;;16.50;72.20;;;;;;5134886;27;20520;-62
2021/05/28 12:18:44;;;;;;;4.20;0.90;;;16.80;74.80;;;;;;5134661;27;20168;-62
2021/05/28 12:21:21;;;;;;;1.80;1.15;;;16.80;70.80;;;;;;5117626;27;20199;-62
2021/05/28 12:23:48;;;;;;;4.93;1.30;;;16.60;72.00;;;;;;5118340;27;20162;-62
2021/05/28 12:26:22;;;;;;;2.65;0.98;;;16.30;72.70;;;;;;5135023;27;20175;-62
2021/05/28 12:28:54;;;;;;;2.50;1.30;;;16.30;74.00;;;;;;5133719;27;20207;-64
2021/05/28 12:31:33;;;;;;;1.30;1.00;;;16.20;74.80;;;;;;5133569;27;20173;-62
2021/05/28 12:34:02;;;;;;;2.08;1.38;;;16.10;75.20;;;;;;5123589;27;20207;-61
2021/05/28 12:36:32;;;;;;;3.00;1.75;;;16.30;80.90;;;;;;5134529;27;20620;-61
2021/05/28 12:39:00;;;;;;;1.88;1.40;;;16.30;76.30;;;;;;5132740;27;20188;-62
2021/05/28 12:41:27;;;;;;;2.90;1.58;;;16.30;77.90;;;;;;5125765;27;20176;-62
2021/05/28 12:43:54;;;;;;;2.08;1.65;;;16.20;83.40;;;;;;5127260;27;20238;-60
2021/05/28 12:46:32;;;;;;;9.20;1.90;;;16.30;82.30;;;;;;5134685;27;20176;-62
2021/05/28 12:48:59;;;;;;;2.47;1.73;;;16.00;79.10;;;;;;5130975;27;20207;-61
2021/05/28 12:51:39;;;;;;;7.88;1.60;;;15.80;79.80;;;;;;5133122;27;20504;-62
2021/05/28 12:54:19;;;;;;;7.50;1.63;;;15.60;80.40;;;;;;5114609;28;20160;-62
2021/05/28 12:56:45;;;;;;;2.00;1.60;;;15.60;80.20;;;;;;5127764;27;20188;-61